Franklin, West Virginia
Current Conditions -  °F | °C
As of 9:30 PM on Wednesday 17 Dec 2014 (Local Time) from KW99 Reporting Station
Clear Clear  
Wind Chill: 26°   Ceiling: Unl
Heat Index: 37°   Visibility: 10mi
Dew Point: 21°   Wind: 20mph
Humidity: 53%   Direction: 290°WNW
Pressure: 30.08"   Gusts: 32mph
Location:  38.64°N, 79.33°W
Report Text: KW99 180230Z AUTO 29017G28KT 10SM CLR 03/M06 A3008 RMK AO2 T00261062
Loading
Personal Weather Stations






























Interactive Weather Map New forecast layout! Learn more

10-Day Weather Forecast

Advertisements
Track Severe Weather on mobile